sensor_id;sensor_type;location;lat;lon;timestamp;P1;durP1;ratioP1;P2;durP2;ratioP2
23115;SDS011;11727;52.134;5.052;2023-04-25T00:01:04;13.32;;;2.10;;
23115;SDS011;11727;52.134;5.052;2023-04-25T00:03:30;12.00;;;1.60;;
23115;SDS011;11727;52.134;5.052;2023-04-25T00:05:57;11.57;;;1.83;;
23115;SDS011;11727;52.134;5.052;2023-04-25T00:08:29;7.60;;;1.27;;
23115;SDS011;11727;52.134;5.052;2023-04-25T00:10:55;4.78;;;1.17;;
23115;SDS011;11727;52.134;5.052;2023-04-25T00:13:21;11.35;;;2.00;;
23115;SDS011;11727;52.134;5.052;2023-04-25T00:15:47;10.77;;;1.27;;
23115;SDS011;11727;52.134;5.052;2023-04-25T00:18:13;5.03;;;1.60;;
23115;SDS011;11727;52.134;5.052;2023-04-25T00:20:39;8.93;;;1.58;;
23115;SDS011;11727;52.134;5.052;2023-04-25T00:23:05;11.95;;;1.83;;
23115;SDS011;11727;52.134;5.052;2023-04-25T00:25:31;4.85;;;1.10;;
23115;SDS011;11727;52.134;5.052;2023-04-25T00:27:57;7.50;;;1.92;;
23115;SDS011;11727;52.134;5.052;2023-04-25T00:30:22;8.38;;;1.98;;
23115;SDS011;11727;52.134;5.052;2023-04-25T00:32:48;8.02;;;1.10;;
23115;SDS011;11727;52.134;5.052;2023-04-25T00:35:13;10.35;;;1.67;;
23115;SDS011;11727;52.134;5.052;2023-04-25T00:37:39;14.57;;;1.88;;
23115;SDS011;11727;52.134;5.052;2023-04-25T00:40:05;10.00;;;1.95;;
23115;SDS011;11727;52.134;5.052;2023-04-25T00:42:32;7.85;;;2.17;;
23115;SDS011;11727;52.134;5.052;2023-04-25T00:45:00;5.93;;;1.38;;
23115;SDS011;11727;52.134;5.052;2023-04-25T00:47:26;9.90;;;2.40;;
23115;SDS011;11727;52.134;5.052;2023-04-25T00:49:53;15.68;;;1.88;;
23115;SDS011;11727;52.134;5.052;2023-04-25T00:52:19;7.90;;;1.38;;
23115;SDS011;11727;52.134;5.052;2023-04-25T00:54:45;13.30;;;2.33;;
23115;SDS011;11727;52.134;5.052;2023-04-25T00:57:11;8.48;;;1.83;;
23115;SDS011;11727;52.134;5.052;2023-04-25T00:59:37;11.45;;;1.98;;
23115;SDS011;11727;52.134;5.052;2023-04-25T01:02:03;7.15;;;1.73;;
23115;SDS011;11727;52.134;5.052;2023-04-25T01:04:29;8.20;;;1.88;;
23115;SDS011;11727;52.134;5.052;2023-04-25T01:06:55;12.63;;;2.25;;
23115;SDS011;11727;52.134;5.052;2023-04-25T01:09:22;8.63;;;1.55;;
23115;SDS011;11727;52.134;5.052;2023-04-25T01:11:48;3.58;;;1.75;;
23115;SDS011;11727;52.134;5.052;2023-04-25T01:14:14;10.50;;;2.10;;
23115;SDS011;11727;52.134;5.052;2023-04-25T01:16:40;9.68;;;2.17;;
23115;SDS011;11727;52.134;5.052;2023-04-25T01:19:09;15.10;;;1.95;;
23115;SDS011;11727;52.134;5.052;2023-04-25T01:21:38;5.75;;;1.88;;
23115;SDS011;11727;52.134;5.052;2023-04-25T01:24:05;7.20;;;1.27;;
23115;SDS011;11727;52.134;5.052;2023-04-25T01:26:31;14.02;;;2.05;;
23115;SDS011;11727;52.134;5.052;2023-04-25T01:28:58;5.03;;;1.85;;
23115;SDS011;11727;52.134;5.052;2023-04-25T01:31:24;10.60;;;1.77;;
23115;SDS011;11727;52.134;5.052;2023-04-25T01:33:52;4.40;;;1.38;;
23115;SDS011;11727;52.134;5.052;2023-04-25T01:36:18;12.73;;;2.28;;
23115;SDS011;11727;52.134;5.052;2023-04-25T01:38:44;11.30;;;2.00;;
23115;SDS011;11727;52.134;5.052;2023-04-25T01:41:12;6.07;;;1.48;;
23115;SDS011;11727;52.134;5.052;2023-04-25T01:43:38;12.90;;;2.25;;
23115;SDS011;11727;52.134;5.052;2023-04-25T01:46:05;12.52;;;2.33;;
23115;SDS011;11727;52.134;5.052;2023-04-25T01:48:30;12.52;;;2.10;;
23115;SDS011;11727;52.134;5.052;2023-04-25T01:50:56;2.20;;;1.13;;
23115;SDS011;11727;52.134;5.052;2023-04-25T01:53:22;8.50;;;2.13;;
23115;SDS011;11727;52.134;5.052;2023-04-25T01:55:48;5.10;;;1.60;;
23115;SDS011;11727;52.134;5.052;2023-04-25T01:58:14;8.05;;;1.63;;
23115;SDS011;11727;52.134;5.052;2023-04-25T02:00:40;7.28;;;1.65;;
23115;SDS011;11727;52.134;5.052;2023-04-25T02:03:06;13.77;;;2.25;;
23115;SDS011;11727;52.134;5.052;2023-04-25T02:05:36;8.93;;;1.40;;
23115;SDS011;11727;52.134;5.052;2023-04-25T02:08:03;5.35;;;1.60;;
23115;SDS011;11727;52.134;5.052;2023-04-25T02:10:35;6.50;;;1.85;;
23115;SDS011;11727;52.134;5.052;2023-04-25T02:13:01;5.90;;;1.80;;
23115;SDS011;11727;52.134;5.052;2023-04-25T02:15:27;16.65;;;2.60;;
23115;SDS011;11727;52.134;5.052;2023-04-25T02:17:52;14.00;;;2.03;;
23115;SDS011;11727;52.134;5.052;2023-04-25T02:20:20;15.57;;;2.67;;
23115;SDS011;11727;52.134;5.052;2023-04-25T02:22:46;7.70;;;2.40;;
23115;SDS011;11727;52.134;5.052;2023-04-25T02:25:12;12.68;;;2.00;;
23115;SDS011;11727;52.134;5.052;2023-04-25T02:27:38;14.07;;;2.33;;
23115;SDS011;11727;52.134;5.052;2023-04-25T02:30:04;10.85;;;2.50;;
23115;SDS011;11727;52.134;5.052;2023-04-25T02:32:31;7.75;;;1.88;;
23115;SDS011;11727;52.134;5.052;2023-04-25T02:34:59;5.57;;;2.30;;
23115;SDS011;11727;52.134;5.052;2023-04-25T02:37:29;3.15;;;1.65;;
23115;SDS011;11727;52.134;5.052;2023-04-25T02:39:55;11.02;;;2.45;;
23115;SDS011;11727;52.134;5.052;2023-04-25T02:42:20;8.77;;;2.00;;
23115;SDS011;11727;52.134;5.052;2023-04-25T02:44:46;14.93;;;1.83;;
23115;SDS011;11727;52.134;5.052;2023-04-25T02:47:11;5.82;;;1.85;;
23115;SDS011;11727;52.134;5.052;2023-04-25T02:49:37;10.65;;;2.53;;
23115;SDS011;11727;52.134;5.052;2023-04-25T02:52:03;3.70;;;1.77;;
23115;SDS011;11727;52.134;5.052;2023-04-25T02:54:28;12.80;;;2.67;;
23115;SDS011;11727;52.134;5.052;2023-04-25T02:56:55;11.05;;;2.38;;
23115;SDS011;11727;52.134;5.052;2023-04-25T02:59:20;7.90;;;1.73;;
23115;SDS011;11727;52.134;5.052;2023-04-25T03:01:46;3.60;;;1.33;;
23115;SDS011;11727;52.134;5.052;2023-04-25T03:04:11;5.75;;;2.42;;
23115;SDS011;11727;52.134;5.052;2023-04-25T03:06:37;4.90;;;1.55;;
23115;SDS011;11727;52.134;5.052;2023-04-25T03:09:03;7.07;;;1.90;;
23115;SDS011;11727;52.134;5.052;2023-04-25T03:11:28;15.23;;;1.80;;
23115;SDS011;11727;52.134;5.052;2023-04-25T03:13:54;5.68;;;2.05;;
23115;SDS011;11727;52.134;5.052;2023-04-25T03:16:21;6.32;;;1.27;;
23115;SDS011;11727;52.134;5.052;2023-04-25T03:18:47;3.92;;;0.75;;
23115;SDS011;11727;52.134;5.052;2023-04-25T03:21:12;15.43;;;1.42;;
23115;SDS011;11727;52.134;5.052;2023-04-25T03:23:38;9.35;;;1.02;;
23115;SDS011;11727;52.134;5.052;2023-04-25T03:26:03;5.72;;;1.27;;
23115;SDS011;11727;52.134;5.052;2023-04-25T03:28:29;4.00;;;1.33;;
23115;SDS011;11727;52.134;5.052;2023-04-25T03:31:00;0.60;;;0.40;;
23115;SDS011;11727;52.134;5.052;2023-04-25T03:33:26;5.80;;;0.93;;
23115;SDS011;11727;52.134;5.052;2023-04-25T03:35:51;9.70;;;1.40;;
23115;SDS011;11727;52.134;5.052;2023-04-25T03:38:17;5.78;;;0.95;;
23115;SDS011;11727;52.134;5.052;2023-04-25T03:40:43;3.35;;;0.70;;
23115;SDS011;11727;52.134;5.052;2023-04-25T03:43:09;6.65;;;1.05;;
23115;SDS011;11727;52.134;5.052;2023-04-25T03:45:35;6.80;;;0.85;;
23115;SDS011;11727;52.134;5.052;2023-04-25T03:48:00;2.13;;;0.60;;
23115;SDS011;11727;52.134;5.052;2023-04-25T03:50:26;9.70;;;1.35;;
23115;SDS011;11727;52.134;5.052;2023-04-25T03:52:51;4.80;;;1.02;;
23115;SDS011;11727;52.134;5.052;2023-04-25T03:55:17;3.42;;;1.00;;
23115;SDS011;11727;52.134;5.052;2023-04-25T03:57:43;6.80;;;1.27;;
23115;SDS011;11727;52.134;5.052;2023-04-25T04:00:08;6.47;;;0.98;;
23115;SDS011;11727;52.134;5.052;2023-04-25T04:02:34;6.60;;;1.33;;
23115;SDS011;11727;52.134;5.052;2023-04-25T04:05:02;2.28;;;0.63;;
23115;SDS011;11727;52.134;5.052;2023-04-25T04:07:28;2.20;;;0.90;;
23115;SDS011;11727;52.134;5.052;2023-04-25T04:09:53;7.25;;;1.05;;
23115;SDS011;11727;52.134;5.052;2023-04-25T04:12:19;4.25;;;1.00;;
23115;SDS011;11727;52.134;5.052;2023-04-25T04:14:45;3.50;;;0.90;;
23115;SDS011;11727;52.134;5.052;2023-04-25T04:17:10;4.78;;;0.80;;
23115;SDS011;11727;52.134;5.052;2023-04-25T04:19:36;5.07;;;1.02;;
23115;SDS011;11727;52.134;5.052;2023-04-25T04:22:02;4.32;;;1.35;;
23115;SDS011;11727;52.134;5.052;2023-04-25T04:24:27;3.85;;;1.25;;
23115;SDS011;11727;52.134;5.052;2023-04-25T04:26:53;5.57;;;1.27;;
23115;SDS011;11727;52.134;5.052;2023-04-25T04:29:18;6.13;;;1.30;;
23115;SDS011;11727;52.134;5.052;2023-04-25T04:31:49;3.10;;;0.80;;
23115;SDS011;11727;52.134;5.052;2023-04-25T04:34:18;7.30;;;1.05;;
23115;SDS011;11727;52.134;5.052;2023-04-25T04:36:44;4.95;;;0.88;;
23115;SDS011;11727;52.134;5.052;2023-04-25T04:39:11;7.93;;;1.37;;
23115;SDS011;11727;52.134;5.052;2023-04-25T04:41:37;5.47;;;0.88;;
23115;SDS011;11727;52.134;5.052;2023-04-25T04:44:04;5.38;;;1.15;;
23115;SDS011;11727;52.134;5.052;2023-04-25T04:46:31;4.50;;;0.80;;
23115;SDS011;11727;52.134;5.052;2023-04-25T04:49:02;9.27;;;1.10;;
23115;SDS011;11727;52.134;5.052;2023-04-25T04:51:31;3.92;;;1.15;;
23115;SDS011;11727;52.134;5.052;2023-04-25T04:53:56;2.47;;;1.20;;
23115;SDS011;11727;52.134;5.052;2023-04-25T04:56:23;5.15;;;1.55;;
23115;SDS011;11727;52.134;5.052;2023-04-25T04:58:50;3.10;;;0.93;;
23115;SDS011;11727;52.134;5.052;2023-04-25T05:01:16;4.80;;;1.02;;
23115;SDS011;11727;52.134;5.052;2023-04-25T05:03:45;4.82;;;0.65;;
23115;SDS011;11727;52.134;5.052;2023-04-25T05:06:11;3.80;;;0.80;;
23115;SDS011;11727;52.134;5.052;2023-04-25T05:08:36;5.40;;;1.00;;
23115;SDS011;11727;52.134;5.052;2023-04-25T05:11:02;9.93;;;1.05;;
23115;SDS011;11727;52.134;5.052;2023-04-25T05:13:28;2.70;;;0.70;;
23115;SDS011;11727;52.134;5.052;2023-04-25T05:15:53;5.38;;;0.82;;
23115;SDS011;11727;52.134;5.052;2023-04-25T05:18:19;6.55;;;1.50;;
23115;SDS011;11727;52.134;5.052;2023-04-25T05:27:58;2.90;;;0.60;;
23115;SDS011;11727;52.134;5.052;2023-04-25T05:33:46;8.93;;;1.10;;
23115;SDS011;11727;52.134;5.052;2023-04-25T05:36:11;4.38;;;0.82;;
23115;SDS011;11727;52.134;5.052;2023-04-25T05:38:37;4.45;;;0.55;;
23115;SDS011;11727;52.134;5.052;2023-04-25T05:41:02;7.28;;;0.80;;
23115;SDS011;11727;52.134;5.052;2023-04-25T05:43:28;3.42;;;0.80;;
23115;SDS011;11727;52.134;5.052;2023-04-25T05:45:56;8.45;;;1.30;;
23115;SDS011;11727;52.134;5.052;2023-04-25T05:48:28;8.20;;;0.73;;
23115;SDS011;11727;52.134;5.052;2023-04-25T05:50:53;12.20;;;1.02;;
23115;SDS011;11727;52.134;5.052;2023-04-25T05:53:19;3.45;;;0.80;;
23115;SDS011;11727;52.134;5.052;2023-04-25T05:55:46;2.60;;;0.70;;
23115;SDS011;11727;52.134;5.052;2023-04-25T05:58:11;4.82;;;1.60;;
23115;SDS011;11727;52.134;5.052;2023-04-25T06:00:37;4.93;;;1.25;;
23115;SDS011;11727;52.134;5.052;2023-04-25T06:03:03;7.15;;;1.08;;
23115;SDS011;11727;52.134;5.052;2023-04-25T06:05:29;3.58;;;1.33;;
23115;SDS011;11727;52.134;5.052;2023-04-25T06:07:55;4.55;;;1.33;;
23115;SDS011;11727;52.134;5.052;2023-04-25T06:10:20;4.30;;;0.90;;
23115;SDS011;11727;52.134;5.052;2023-04-25T06:12:47;3.03;;;0.60;;
23115;SDS011;11727;52.134;5.052;2023-04-25T06:15:13;4.95;;;0.88;;
23115;SDS011;11727;52.134;5.052;2023-04-25T06:17:38;4.85;;;1.05;;
23115;SDS011;11727;52.134;5.052;2023-04-25T06:20:04;4.05;;;1.38;;
23115;SDS011;11727;52.134;5.052;2023-04-25T06:22:31;4.32;;;1.00;;
23115;SDS011;11727;52.134;5.052;2023-04-25T06:24:56;5.82;;;0.90;;
23115;SDS011;11727;52.134;5.052;2023-04-25T06:27:23;5.30;;;1.20;;
23115;SDS011;11727;52.134;5.052;2023-04-25T06:29:49;2.78;;;1.08;;
23115;SDS011;11727;52.134;5.052;2023-04-25T06:32:15;5.65;;;0.80;;
23115;SDS011;11727;52.134;5.052;2023-04-25T06:34:40;8.00;;;1.38;;
23115;SDS011;11727;52.134;5.052;2023-04-25T06:37:06;9.25;;;1.33;;
23115;SDS011;11727;52.134;5.052;2023-04-25T06:39:32;3.67;;;0.60;;
23115;SDS011;11727;52.134;5.052;2023-04-25T06:41:57;4.50;;;0.95;;
23115;SDS011;11727;52.134;5.052;2023-04-25T06:44:23;4.25;;;0.90;;
23115;SDS011;11727;52.134;5.052;2023-04-25T06:49:16;4.82;;;0.88;;
23115;SDS011;11727;52.134;5.052;2023-04-25T06:51:42;2.10;;;1.08;;
23115;SDS011;11727;52.134;5.052;2023-04-25T06:54:07;5.50;;;0.90;;
23115;SDS011;11727;52.134;5.052;2023-04-25T06:56:33;6.03;;;1.27;;
23115;SDS011;11727;52.134;5.052;2023-04-25T06:58:59;7.00;;;1.25;;
23115;SDS011;11727;52.134;5.052;2023-04-25T07:01:25;10.13;;;0.93;;
23115;SDS011;11727;52.134;5.052;2023-04-25T07:03:51;5.18;;;0.80;;
23115;SDS011;11727;52.134;5.052;2023-04-25T07:06:16;2.10;;;0.73;;
23115;SDS011;11727;52.134;5.052;2023-04-25T07:08:42;14.40;;;1.20;;
23115;SDS011;11727;52.134;5.052;2023-04-25T07:11:08;3.88;;;0.93;;
23115;SDS011;11727;52.134;5.052;2023-04-25T07:13:34;12.55;;;1.10;;
23115;SDS011;11727;52.134;5.052;2023-04-25T07:15:59;6.30;;;1.13;;
23115;SDS011;11727;52.134;5.052;2023-04-25T07:18:25;3.67;;;0.60;;
23115;SDS011;11727;52.134;5.052;2023-04-25T07:20:50;1.00;;;0.40;;
23115;SDS011;11727;52.134;5.052;2023-04-25T07:23:16;1.88;;;0.63;;
23115;SDS011;11727;52.134;5.052;2023-04-25T07:25:42;2.72;;;0.40;;
23115;SDS011;11727;52.134;5.052;2023-04-25T07:28:07;2.05;;;0.32;;
23115;SDS011;11727;52.134;5.052;2023-04-25T07:30:33;3.35;;;0.20;;
23115;SDS011;11727;52.134;5.052;2023-04-25T07:32:59;0.77;;;0.22;;
23115;SDS011;11727;52.134;5.052;2023-04-25T07:35:25;1.30;;;0.30;;
23115;SDS011;11727;52.134;5.052;2023-04-25T07:37:51;2.72;;;0.50;;
23115;SDS011;11727;52.134;5.052;2023-04-25T07:40:16;2.35;;;0.30;;
23115;SDS011;11727;52.134;5.052;2023-04-25T07:42:42;3.60;;;0.65;;
23115;SDS011;11727;52.134;5.052;2023-04-25T07:45:08;6.78;;;0.73;;
23115;SDS011;11727;52.134;5.052;2023-04-25T07:47:34;1.95;;;0.47;;
23115;SDS011;11727;52.134;5.052;2023-04-25T07:50:00;5.05;;;0.60;;
23115;SDS011;11727;52.134;5.052;2023-04-25T07:52:26;12.15;;;0.70;;
23115;SDS011;11727;52.134;5.052;2023-04-25T07:54:51;2.92;;;0.50;;
23115;SDS011;11727;52.134;5.052;2023-04-25T07:57:17;6.65;;;0.90;;
23115;SDS011;11727;52.134;5.052;2023-04-25T07:59:44;2.53;;;0.35;;
23115;SDS011;11727;52.134;5.052;2023-04-25T08:02:10;2.83;;;0.52;;
23115;SDS011;11727;52.134;5.052;2023-04-25T08:04:35;0.63;;;0.30;;
23115;SDS011;11727;52.134;5.052;2023-04-25T08:07:01;5.10;;;1.45;;
23115;SDS011;11727;52.134;5.052;2023-04-25T08:09:27;5.32;;;0.90;;
23115;SDS011;11727;52.134;5.052;2023-04-25T08:11:54;9.20;;;0.70;;
23115;SDS011;11727;52.134;5.052;2023-04-25T08:14:22;1.05;;;0.30;;
23115;SDS011;11727;52.134;5.052;2023-04-25T08:16:48;4.70;;;0.80;;
23115;SDS011;11727;52.134;5.052;2023-04-25T08:19:14;10.77;;;1.27;;
23115;SDS011;11727;52.134;5.052;2023-04-25T08:21:39;2.85;;;0.60;;
23115;SDS011;11727;52.134;5.052;2023-04-25T08:24:05;2.95;;;0.50;;
23115;SDS011;11727;52.134;5.052;2023-04-25T08:26:31;3.08;;;0.70;;
23115;SDS011;11727;52.134;5.052;2023-04-25T08:28:57;3.55;;;0.60;;
23115;SDS011;11727;52.134;5.052;2023-04-25T08:31:22;4.00;;;0.63;;
23115;SDS011;11727;52.134;5.052;2023-04-25T08:33:48;3.13;;;0.88;;
23115;SDS011;11727;52.134;5.052;2023-04-25T08:36:14;3.58;;;0.93;;
23115;SDS011;11727;52.134;5.052;2023-04-25T08:38:40;2.35;;;0.63;;
23115;SDS011;11727;52.134;5.052;2023-04-25T08:41:05;1.02;;;0.40;;
23115;SDS011;11727;52.134;5.052;2023-04-25T08:43:31;2.35;;;0.80;;
23115;SDS011;11727;52.134;5.052;2023-04-25T08:46:00;6.32;;;0.60;;
23115;SDS011;11727;52.134;5.052;2023-04-25T08:48:27;6.97;;;0.73;;
23115;SDS011;11727;52.134;5.052;2023-04-25T08:50:56;2.33;;;0.60;;
23115;SDS011;11727;52.134;5.052;2023-04-25T08:53:28;4.05;;;0.40;;
23115;SDS011;11727;52.134;5.052;2023-04-25T08:55:56;0.98;;;0.38;;
23115;SDS011;11727;52.134;5.052;2023-04-25T09:00:48;1.27;;;0.20;;
23115;SDS011;11727;52.134;5.052;2023-04-25T09:03:15;2.70;;;0.50;;
23115;SDS011;11727;52.134;5.052;2023-04-25T09:05:41;3.78;;;0.65;;
23115;SDS011;11727;52.134;5.052;2023-04-25T09:08:07;1.30;;;0.30;;
23115;SDS011;11727;52.134;5.052;2023-04-25T09:10:33;3.63;;;0.52;;
23115;SDS011;11727;52.134;5.052;2023-04-25T09:15:33;2.97;;;0.40;;
23115;SDS011;11727;52.134;5.052;2023-04-25T09:18:26;3.97;;;0.47;;
23115;SDS011;11727;52.134;5.052;2023-04-25T09:20:54;4.45;;;0.43;;
23115;SDS011;11727;52.134;5.052;2023-04-25T09:23:21;3.58;;;0.32;;
23115;SDS011;11727;52.134;5.052;2023-04-25T09:25:48;4.72;;;0.47;;
23115;SDS011;11727;52.134;5.052;2023-04-25T09:28:15;2.55;;;0.55;;
23115;SDS011;11727;52.134;5.052;2023-04-25T09:30:41;5.38;;;0.88;;
23115;SDS011;11727;52.134;5.052;2023-04-25T09:33:08;1.48;;;0.35;;
23115;SDS011;11727;52.134;5.052;2023-04-25T09:38:20;6.85;;;1.13;;
23115;SDS011;11727;52.134;5.052;2023-04-25T09:40:46;4.15;;;0.45;;
23115;SDS011;11727;52.134;5.052;2023-04-25T09:43:21;2.10;;;0.30;;
23115;SDS011;11727;52.134;5.052;2023-04-25T09:45:47;7.35;;;0.38;;
23115;SDS011;11727;52.134;5.052;2023-04-25T09:48:17;3.15;;;0.30;;
23115;SDS011;11727;52.134;5.052;2023-04-25T09:53:36;1.58;;;0.65;;
23115;SDS011;11727;52.134;5.052;2023-04-25T09:56:04;1.20;;;0.55;;
23115;SDS011;11727;52.134;5.052;2023-04-25T09:58:31;2.55;;;0.60;;
23115;SDS011;11727;52.134;5.052;2023-04-25T10:00:59;4.00;;;0.40;;
23115;SDS011;11727;52.134;5.052;2023-04-25T10:03:29;6.03;;;0.52;;
23115;SDS011;11727;52.134;5.052;2023-04-25T10:05:57;1.00;;;0.20;;
23115;SDS011;11727;52.134;5.052;2023-04-25T10:08:25;1.35;;;0.28;;
23115;SDS011;11727;52.134;5.052;2023-04-25T10:11:03;4.25;;;0.30;;
23115;SDS011;11727;52.134;5.052;2023-04-25T10:13:29;3.67;;;0.45;;
23115;SDS011;11727;52.134;5.052;2023-04-25T10:15:59;2.22;;;0.45;;
23115;SDS011;11727;52.134;5.052;2023-04-25T10:18:27;1.63;;;0.70;;
23115;SDS011;11727;52.134;5.052;2023-04-25T10:21:12;2.67;;;0.52;;
23115;SDS011;11727;52.134;5.052;2023-04-25T10:23:39;0.93;;;0.32;;
23115;SDS011;11727;52.134;5.052;2023-04-25T10:26:05;2.13;;;0.35;;
23115;SDS011;11727;52.134;5.052;2023-04-25T10:31:30;2.25;;;0.50;;
23115;SDS011;11727;52.134;5.052;2023-04-25T10:33:56;2.50;;;0.50;;
23115;SDS011;11727;52.134;5.052;2023-04-25T10:36:22;1.05;;;0.30;;
23115;SDS011;11727;52.134;5.052;2023-04-25T10:38:50;4.57;;;0.52;;
23115;SDS011;11727;52.134;5.052;2023-04-25T10:41:19;1.47;;;0.77;;
23115;SDS011;11727;52.134;5.052;2023-04-25T10:43:46;3.40;;;0.60;;
23115;SDS011;11727;52.134;5.052;2023-04-25T10:48:51;10.13;;;0.65;;
23115;SDS011;11727;52.134;5.052;2023-04-25T10:51:21;1.70;;;0.47;;
23115;SDS011;11727;52.134;5.052;2023-04-25T10:54:05;5.28;;;0.65;;
23115;SDS011;11727;52.134;5.052;2023-04-25T10:56:33;4.90;;;0.75;;
23115;SDS011;11727;52.134;5.052;2023-04-25T10:59:13;0.98;;;0.40;;
23115;SDS011;11727;52.134;5.052;2023-04-25T11:01:41;1.42;;;0.40;;
23115;SDS011;11727;52.134;5.052;2023-04-25T11:09:39;7.28;;;0.70;;
23115;SDS011;11727;52.134;5.052;2023-04-25T11:12:07;2.55;;;0.57;;
23115;SDS011;11727;52.134;5.052;2023-04-25T11:14:34;2.45;;;0.60;;
23115;SDS011;11727;52.134;5.052;2023-04-25T11:17:00;1.80;;;0.40;;
23115;SDS011;11727;52.134;5.052;2023-04-25T11:19:28;2.95;;;0.47;;
23115;SDS011;11727;52.134;5.052;2023-04-25T11:21:55;2.35;;;0.52;;
23115;SDS011;11727;52.134;5.052;2023-04-25T11:24:35;7.55;;;1.00;;
23115;SDS011;11727;52.134;5.052;2023-04-25T11:27:02;3.50;;;0.57;;
23115;SDS011;11727;52.134;5.052;2023-04-25T11:29:29;4.70;;;0.40;;
23115;SDS011;11727;52.134;5.052;2023-04-25T11:31:55;1.15;;;0.40;;
23115;SDS011;11727;52.134;5.052;2023-04-25T11:34:22;2.38;;;0.65;;
23115;SDS011;11727;52.134;5.052;2023-04-25T11:36:50;0.80;;;0.22;;
23115;SDS011;11727;52.134;5.052;2023-04-25T11:39:17;3.40;;;0.50;;
23115;SDS011;11727;52.134;5.052;2023-04-25T11:41:43;4.20;;;0.57;;
23115;SDS011;11727;52.134;5.052;2023-04-25T11:44:09;2.03;;;0.50;;
23115;SDS011;11727;52.134;5.052;2023-04-25T11:46:35;3.85;;;0.50;;
23115;SDS011;11727;52.134;5.052;2023-04-25T11:49:00;13.25;;;1.30;;
23115;SDS011;11727;52.134;5.052;2023-04-25T11:51:27;4.22;;;0.30;;
23115;SDS011;11727;52.134;5.052;2023-04-25T11:53:52;3.40;;;0.40;;
23115;SDS011;11727;52.134;5.052;2023-04-25T11:56:18;9.07;;;1.25;;
23115;SDS011;11727;52.134;5.052;2023-04-25T11:59:00;1.33;;;0.50;;
23115;SDS011;11727;52.134;5.052;2023-04-25T12:01:31;4.28;;;0.63;;
23115;SDS011;11727;52.134;5.052;2023-04-25T12:03:58;4.30;;;1.15;;
23115;SDS011;11727;52.134;5.052;2023-04-25T12:06:36;4.75;;;0.88;;
23115;SDS011;11727;52.134;5.052;2023-04-25T12:09:10;3.47;;;0.50;;
23115;SDS011;11727;52.134;5.052;2023-04-25T12:11:43;3.17;;;0.82;;
23115;SDS011;11727;52.134;5.052;2023-04-25T12:14:12;8.02;;;0.80;;
23115;SDS011;11727;52.134;5.052;2023-04-25T12:16:46;4.40;;;0.80;;
23115;SDS011;11727;52.134;5.052;2023-04-25T12:19:14;2.42;;;0.82;;
23115;SDS011;11727;52.134;5.052;2023-04-25T12:21:40;4.90;;;0.70;;
23115;SDS011;11727;52.134;5.052;2023-04-25T12:24:09;4.82;;;0.88;;
23115;SDS011;11727;52.134;5.052;2023-04-25T12:27:37;2.67;;;0.45;;
23115;SDS011;11727;52.134;5.052;2023-04-25T12:29:35;7.97;;;0.60;;
23115;SDS011;11727;52.134;5.052;2023-04-25T12:32:00;3.78;;;0.52;;
23115;SDS011;11727;52.134;5.052;2023-04-25T12:34:26;1.17;;;0.30;;
23115;SDS011;11727;52.134;5.052;2023-04-25T12:36:53;5.63;;;1.00;;
23115;SDS011;11727;52.134;5.052;2023-04-25T12:39:23;2.10;;;0.50;;
23115;SDS011;11727;52.134;5.052;2023-04-25T12:41:50;7.03;;;1.13;;
23115;SDS011;11727;52.134;5.052;2023-04-25T12:44:19;2.75;;;0.47;;
23115;SDS011;11727;52.134;5.052;2023-04-25T12:46:46;2.83;;;0.50;;
23115;SDS011;11727;52.134;5.052;2023-04-25T12:49:12;2.95;;;0.63;;
23115;SDS011;11727;52.134;5.052;2023-04-25T12:51:38;2.70;;;0.30;;
23115;SDS011;11727;52.134;5.052;2023-04-25T12:54:04;8.50;;;0.50;;
23115;SDS011;11727;52.134;5.052;2023-04-25T12:56:35;1.70;;;0.40;;
23115;SDS011;11727;52.134;5.052;2023-04-25T12:59:01;1.17;;;0.35;;
23115;SDS011;11727;52.134;5.052;2023-04-25T13:01:28;2.42;;;0.60;;
23115;SDS011;11727;52.134;5.052;2023-04-25T13:03:54;3.38;;;0.50;;
23115;SDS011;11727;52.134;5.052;2023-04-25T13:06:20;1.80;;;0.80;;
23115;SDS011;11727;52.134;5.052;2023-04-25T13:08:46;3.50;;;0.30;;
23115;SDS011;11727;52.134;5.052;2023-04-25T13:11:12;6.38;;;0.90;;
23115;SDS011;11727;52.134;5.052;2023-04-25T13:13:39;0.85;;;0.32;;
23115;SDS011;11727;52.134;5.052;2023-04-25T13:16:05;1.80;;;0.30;;
23115;SDS011;11727;52.134;5.052;2023-04-25T13:18:32;3.10;;;0.85;;
23115;SDS011;11727;52.134;5.052;2023-04-25T13:20:58;1.42;;;0.47;;
23115;SDS011;11727;52.134;5.052;2023-04-25T13:23:25;4.20;;;0.60;;
23115;SDS011;11727;52.134;5.052;2023-04-25T13:26:10;3.28;;;0.85;;
23115;SDS011;11727;52.134;5.052;2023-04-25T13:28:36;5.10;;;1.33;;
23115;SDS011;11727;52.134;5.052;2023-04-25T13:31:01;3.05;;;0.50;;
23115;SDS011;11727;52.134;5.052;2023-04-25T13:33:27;4.65;;;0.60;;
23115;SDS011;11727;52.134;5.052;2023-04-25T13:35:53;5.13;;;0.43;;
23115;SDS011;11727;52.134;5.052;2023-04-25T13:41:13;1.25;;;0.30;;
23115;SDS011;11727;52.134;5.052;2023-04-25T13:43:43;7.65;;;1.25;;
23115;SDS011;11727;52.134;5.052;2023-04-25T13:46:09;2.47;;;0.60;;
23115;SDS011;11727;52.134;5.052;2023-04-25T13:48:36;1.07;;;0.50;;
23115;SDS011;11727;52.134;5.052;2023-04-25T13:51:02;2.97;;;0.93;;
23115;SDS011;11727;52.134;5.052;2023-04-25T13:53:28;3.53;;;0.80;;
23115;SDS011;11727;52.134;5.052;2023-04-25T13:55:53;4.85;;;0.55;;
23115;SDS011;11727;52.134;5.052;2023-04-25T13:58:19;5.18;;;0.50;;
23115;SDS011;11727;52.134;5.052;2023-04-25T14:00:45;2.53;;;0.50;;
23115;SDS011;11727;52.134;5.052;2023-04-25T14:03:11;4.10;;;0.52;;
23115;SDS011;11727;52.134;5.052;2023-04-25T14:05:37;4.00;;;0.68;;
23115;SDS011;11727;52.134;5.052;2023-04-25T14:08:07;2.50;;;0.43;;
23115;SDS011;11727;52.134;5.052;2023-04-25T14:10:34;6.07;;;0.75;;
23115;SDS011;11727;52.134;5.052;2023-04-25T14:13:01;5.32;;;1.00;;
23115;SDS011;11727;52.134;5.052;2023-04-25T14:15:28;2.33;;;0.50;;
23115;SDS011;11727;52.134;5.052;2023-04-25T14:17:54;2.45;;;0.70;;
23115;SDS011;11727;52.134;5.052;2023-04-25T14:20:19;4.03;;;0.70;;
23115;SDS011;11727;52.134;5.052;2023-04-25T14:22:46;1.98;;;0.50;;
23115;SDS011;11727;52.134;5.052;2023-04-25T14:25:12;3.30;;;0.70;;
23115;SDS011;11727;52.134;5.052;2023-04-25T14:27:37;3.50;;;0.52;;
23115;SDS011;11727;52.134;5.052;2023-04-25T14:30:03;2.85;;;0.65;;
23115;SDS011;11727;52.134;5.052;2023-04-25T14:32:29;3.50;;;0.47;;
23115;SDS011;11727;52.134;5.052;2023-04-25T14:34:57;1.00;;;0.40;;
23115;SDS011;11727;52.134;5.052;2023-04-25T14:37:22;3.30;;;0.50;;
23115;SDS011;11727;52.134;5.052;2023-04-25T14:39:48;1.88;;;0.50;;
23115;SDS011;11727;52.134;5.052;2023-04-25T14:42:14;4.22;;;1.40;;
23115;SDS011;11727;52.134;5.052;2023-04-25T14:44:39;1.50;;;0.45;;
23115;SDS011;11727;52.134;5.052;2023-04-25T14:47:07;2.03;;;0.65;;
23115;SDS011;11727;52.134;5.052;2023-04-25T14:49:33;5.00;;;0.50;;
23115;SDS011;11727;52.134;5.052;2023-04-25T14:51:58;2.35;;;0.75;;
23115;SDS011;11727;52.134;5.052;2023-04-25T14:54:24;1.45;;;0.47;;
23115;SDS011;11727;52.134;5.052;2023-04-25T14:56:50;5.18;;;0.70;;
23115;SDS011;11727;52.134;5.052;2023-04-25T14:59:16;1.73;;;0.60;;
23115;SDS011;11727;52.134;5.052;2023-04-25T15:01:41;12.70;;;1.08;;
23115;SDS011;11727;52.134;5.052;2023-04-25T15:04:07;2.75;;;0.47;;
23115;SDS011;11727;52.134;5.052;2023-04-25T15:06:33;2.83;;;1.02;;
23115;SDS011;11727;52.134;5.052;2023-04-25T15:08:58;4.15;;;0.82;;
23115;SDS011;11727;52.134;5.052;2023-04-25T15:11:24;8.55;;;0.80;;
23115;SDS011;11727;52.134;5.052;2023-04-25T15:13:52;6.65;;;0.98;;
23115;SDS011;11727;52.134;5.052;2023-04-25T15:16:18;2.08;;;0.52;;
23115;SDS011;11727;52.134;5.052;2023-04-25T15:18:46;1.50;;;0.52;;
23115;SDS011;11727;52.134;5.052;2023-04-25T15:21:14;2.17;;;0.70;;